Time;durP1;ratioP1;P1;durP2;ratioP2;P2;SDS_P1;SDS_P2;PMS_P1;PMS_P2;Temp;Humidity;BMP_temperature;BMP_pressure;BME280_temperature;BME280_humidity;BME280_pressure;Samples;Min_cycle;Max_cycle;Signal;HPM_P1;HPM_P2
2023/07/06 00:02:08;;;;;;;11.55;5.78;;;;;;;15.50;76.58;101462.91;5017430;28;20041;-81
2023/07/06 00:04:35;;;;;;;10.77;5.70;;;;;;;15.43;76.53;101456.16;5022275;28;20101;-81
2023/07/06 00:07:00;;;;;;;12.00;5.32;;;;;;;15.42;76.42;101456.22;5018697;28;20029;-81
2023/07/06 00:09:25;;;;;;;10.18;6.43;;;;;;;15.37;76.74;101459.13;5023637;28;20020;-81
2023/07/06 00:11:51;;;;;;;14.13;5.60;;;;;;;15.49;76.95;101466.50;5022099;28;20033;-81
2023/07/06 00:14:16;;;;;;;6.95;5.40;;;;;;;15.52;76.66;101468.16;5015489;28;20187;-81
2023/07/06 00:16:46;;;;;;;11.85;5.70;;;;;;;15.47;76.28;101465.72;5021735;28;20056;-82
2023/07/06 00:19:11;;;;;;;11.82;5.18;;;;;;;15.41;75.88;101463.38;5023688;28;20029;-82
2023/07/06 00:21:36;;;;;;;8.57;5.13;;;;;;;15.40;75.58;101460.78;5021354;28;20116;-82
2023/07/06 00:24:01;;;;;;;10.25;4.93;;;;;;;15.31;76.05;101467.44;5030746;28;20029;-81
2023/07/06 00:26:27;;;;;;;7.65;5.30;;;;;;;15.21;76.37;101469.69;5030670;28;20067;-81
2023/07/06 00:28:53;;;;;;;6.20;4.65;;;;;;;15.22;75.53;101462.56;5026198;28;20038;-82
2023/07/06 00:31:32;;;;;;;7.75;4.68;;;;;;;15.18;75.31;101466.31;5023923;28;20029;-82
2023/07/06 00:34:03;;;;;;;10.43;5.05;;;;;;;15.17;75.34;101465.47;5019743;28;20531;-82
2023/07/06 00:36:32;;;;;;;11.55;4.65;;;;;;;15.07;75.88;101458.88;5033333;28;20468;-82
2023/07/06 00:38:57;;;;;;;7.18;4.38;;;;;;;15.02;75.93;101466.22;5027330;28;20084;-82
2023/07/06 00:41:23;;;;;;;10.23;4.53;;;;;;;15.01;75.93;101462.69;5027091;28;20077;-82
2023/07/06 00:43:54;;;;;;;6.47;3.60;;;;;;;14.99;75.27;101463.69;5020424;28;20040;-82
2023/07/06 00:46:21;;;;;;;10.52;4.60;;;;;;;14.93;76.30;101472.00;5021388;28;20060;-82
2023/07/06 00:48:50;;;;;;;7.10;3.95;;;;;;;14.87;76.51;101467.78;5027975;28;20050;-82
2023/07/06 00:51:24;;;;;;;13.23;4.45;;;;;;;14.96;75.94;101471.81;5016709;28;20022;-82
2023/07/06 00:53:54;;;;;;;9.13;4.30;;;;;;;14.98;75.80;101464.63;5027981;28;20105;-82
2023/07/06 00:56:26;;;;;;;6.60;4.05;;;;;;;15.01;75.13;101464.47;5026477;28;20452;-82
2023/07/06 00:59:04;;;;;;;9.73;3.97;;;;;;;15.09;75.14;101467.63;5018747;28;20488;-82
2023/07/06 01:01:33;;;;;;;9.52;4.07;;;;;;;15.06;75.54;101465.09;5018899;28;20021;-82
2023/07/06 01:04:00;;;;;;;7.18;4.28;;;;;;;15.12;75.70;101469.28;5022976;28;20017;-82
2023/07/06 01:06:30;;;;;;;9.98;4.00;;;;;;;15.10;74.03;101471.16;5020333;28;20169;-83
2023/07/06 01:08:57;;;;;;;8.13;3.97;;;;;;;15.02;74.60;101466.22;5026145;28;20107;-82
2023/07/06 01:11:23;;;;;;;12.32;4.30;;;;;;;14.94;75.01;101471.03;5030087;28;20345;-82
2023/07/06 01:13:50;;;;;;;7.05;3.70;;;;;;;14.93;74.67;101462.19;5025435;28;20021;-82
2023/07/06 01:16:50;;;;;;;6.45;3.40;;;;;;;14.97;74.11;101454.94;5013044;28;20057;-82
2023/07/06 01:19:57;;;;;;;9.55;3.95;;;;;;;14.95;74.63;101464.78;5020134;28;20028;-82
2023/07/06 01:22:28;;;;;;;6.57;3.72;;;;;;;14.74;75.42;101462.22;5022455;28;20546;-82
2023/07/06 01:25:17;;;;;;;6.07;3.30;;;;;;;14.79;74.66;101464.66;5020610;28;20393;-82
2023/07/06 01:28:15;;;;;;;6.65;3.78;;;;;;;14.91;74.62;101469.38;5022720;28;20049;-83
2023/07/06 01:31:02;;;;;;;7.45;3.25;;;;;;;14.82;74.29;101463.63;5027991;28;20041;-82
2023/07/06 01:33:52;;;;;;;7.32;3.22;;;;;;;14.78;74.49;101463.81;5019189;28;20030;-82
2023/07/06 01:36:34;;;;;;;6.85;3.50;;;;;;;14.70;75.12;101470.41;5020619;28;20132;-82
2023/07/06 01:39:19;;;;;;;10.23;4.10;;;;;;;14.72;74.85;101468.53;5031969;28;20036;-83
2023/07/06 01:41:45;;;;;;;9.15;3.95;;;;;;;14.67;74.26;101467.91;5025484;28;20052;-82
2023/07/06 01:44:15;;;;;;;7.13;3.67;;;;;;;14.61;75.13;101460.22;5028079;28;20036;-82
2023/07/06 01:46:49;;;;;;;6.63;3.22;;;;;;;14.52;75.35;101454.38;5024250;28;20508;-82
2023/07/06 01:49:15;;;;;;;8.65;3.45;;;;;;;14.35;75.65;101456.91;5023960;28;20477;-82
2023/07/06 01:51:54;;;;;;;8.15;3.63;;;;;;;14.40;75.33;101456.69;5016966;28;20083;-82
2023/07/06 01:54:25;;;;;;;9.27;3.53;;;;;;;14.37;75.67;101460.38;5021274;28;20080;-82
2023/07/06 01:56:57;;;;;;;5.95;3.30;;;;;;;14.47;75.82;101459.03;5023835;28;20038;-82
2023/07/06 01:59:26;;;;;;;10.23;3.88;;;;;;;14.42;75.08;101465.50;5028079;28;20059;-82
2023/07/06 02:02:00;;;;;;;8.20;3.55;;;;;;;14.36;76.18;101461.31;5017828;28;20543;-82
2023/07/06 02:04:32;;;;;;;6.93;3.50;;;;;;;14.38;75.36;101469.22;5026391;28;20152;-82
2023/07/06 02:07:03;;;;;;;8.43;3.55;;;;;;;14.39;75.36;101465.63;5023046;28;20041;-82
2023/07/06 02:09:28;;;;;;;7.47;3.83;;;;;;;14.36;75.87;101473.72;5022769;28;20056;-82
2023/07/06 02:11:53;;;;;;;6.22;3.33;;;;;;;14.32;75.69;101473.03;5028477;28;20061;-82
2023/07/06 02:14:19;;;;;;;8.13;3.45;;;;;;;14.30;74.21;101475.75;5024822;28;20504;-82
2023/07/06 02:16:45;;;;;;;8.13;3.90;;;;;;;14.16;76.17;101472.00;5021677;28;20112;-82
2023/07/06 02:19:10;;;;;;;5.22;3.47;;;;;;;14.14;75.70;101471.22;5028777;28;20548;-82
2023/07/06 02:21:36;;;;;;;7.53;3.67;;;;;;;14.08;76.24;101461.69;5021904;28;20021;-82
2023/07/06 02:24:02;;;;;;;10.77;3.17;;;;;;;14.11;75.73;101458.91;5009347;28;20049;-82
2023/07/06 02:26:27;;;;;;;8.70;3.30;;;;;;;14.06;76.25;101457.38;5015905;28;20025;-82
2023/07/06 02:28:52;;;;;;;5.57;2.95;;;;;;;14.06;75.78;101468.00;5015446;28;20021;-82
2023/07/06 02:31:18;;;;;;;6.00;3.20;;;;;;;14.07;75.59;101453.78;5013969;28;20083;-82
2023/07/06 02:33:44;;;;;;;10.55;4.38;;;;;;;14.08;75.28;101459.03;5011233;28;20443;-82
2023/07/06 02:36:09;;;;;;;5.68;3.05;;;;;;;14.07;75.98;101459.09;5019786;28;20021;-82
2023/07/06 02:38:36;;;;;;;6.88;3.38;;;;;;;14.06;75.58;101450.25;5024581;28;20141;-82
2023/07/06 02:41:04;;;;;;;10.25;3.80;;;;;;;14.06;75.80;101454.72;5015536;28;20064;-82
2023/07/06 02:43:32;;;;;;;7.38;3.78;;;;;;;13.99;76.29;101456.81;5019947;28;20025;-82
2023/07/06 02:45:58;;;;;;;6.50;3.58;;;;;;;13.97;76.31;101456.84;5020843;28;20030;-82
2023/07/06 02:48:24;;;;;;;7.40;3.75;;;;;;;14.00;76.16;101458.53;5026661;28;20037;-82
2023/07/06 02:50:51;;;;;;;7.38;3.78;;;;;;;13.92;76.01;101460.66;5021292;28;20091;-82
2023/07/06 02:53:17;;;;;;;7.13;3.17;;;;;;;13.95;76.27;101464.03;5022357;28;20480;-82
2023/07/06 02:55:46;;;;;;;6.22;3.60;;;;;;;13.93;76.49;101473.00;5011421;28;20059;-82
2023/07/06 02:58:11;;;;;;;8.98;3.10;;;;;;;14.01;76.03;101466.44;5015131;28;20031;-82
2023/07/06 03:00:36;;;;;;;5.68;3.60;;;;;;;14.10;76.29;101462.50;5017943;28;20042;-82
2023/07/06 03:03:07;;;;;;;7.63;3.50;;;;;;;14.10;76.04;101469.63;5015972;28;20083;-82
2023/07/06 03:05:35;;;;;;;8.00;3.42;;;;;;;14.03;76.24;101469.00;5028300;28;20041;-82
2023/07/06 03:08:01;;;;;;;7.85;3.38;;;;;;;14.01;75.88;101468.22;5019338;28;20453;-82
2023/07/06 03:10:26;;;;;;;10.40;3.83;;;;;;;14.07;75.90;101473.25;5024692;28;20040;-82
2023/07/06 03:12:52;;;;;;;7.93;3.58;;;;;;;14.06;76.46;101468.88;5021798;28;20029;-82
2023/07/06 03:15:17;;;;;;;8.88;4.00;;;;;;;14.02;76.18;101467.28;5019421;28;20540;-82
2023/07/06 03:17:48;;;;;;;6.68;3.40;;;;;;;14.01;76.93;101462.91;5024758;28;20121;-82
2023/07/06 03:20:14;;;;;;;9.38;3.33;;;;;;;14.03;76.29;101475.22;5022196;28;20112;-82
2023/07/06 03:22:41;;;;;;;8.00;3.88;;;;;;;14.03;76.46;101467.25;5014186;28;20035;-82
2023/07/06 03:25:09;;;;;;;9.57;3.60;;;;;;;14.04;76.23;101478.72;5018347;28;20489;-82
2023/07/06 03:27:36;;;;;;;6.22;3.88;;;;;;;13.94;77.24;101483.59;5009260;28;20030;-82
2023/07/06 03:30:04;;;;;;;7.85;3.70;;;;;;;13.90;77.01;101482.00;5031384;28;20557;-81
2023/07/06 03:32:30;;;;;;;9.40;3.75;;;;;;;13.89;77.13;101487.34;5029856;28;20049;-82
2023/07/06 03:34:55;;;;;;;6.25;3.67;;;;;;;13.95;77.00;101489.78;5030264;28;20060;-82
2023/07/06 03:37:20;;;;;;;9.80;3.60;;;;;;;13.95;77.44;101485.31;5020672;28;20033;-82
2023/07/06 03:39:47;;;;;;;9.45;3.67;;;;;;;14.00;76.62;101485.13;5026052;28;20033;-82
2023/07/06 03:42:13;;;;;;;8.63;3.40;;;;;;;13.92;77.20;101485.44;5022163;28;20025;-82
2023/07/06 03:44:39;;;;;;;5.90;3.10;;;;;;;14.02;77.07;101497.38;5027370;28;20491;-82
2023/07/06 03:47:06;;;;;;;7.05;3.40;;;;;;;14.03;77.28;101493.81;5024749;28;20021;-82
2023/07/06 03:49:34;;;;;;;7.28;3.00;;;;;;;14.02;76.74;101492.06;5040087;28;20226;-82
2023/07/06 03:52:01;;;;;;;11.50;3.83;;;;;;;14.05;76.90;101504.38;5019494;28;20025;-82
2023/07/06 03:54:26;;;;;;;6.70;3.47;;;;;;;14.08;76.97;101503.38;5022710;28;20490;-82
2023/07/06 03:56:53;;;;;;;6.47;3.63;;;;;;;14.13;76.17;101502.25;5019403;28;20030;-81
2023/07/06 03:59:19;;;;;;;10.10;3.90;;;;;;;14.15;76.39;101495.06;5016867;28;20026;-82
2023/07/06 04:01:44;;;;;;;11.35;4.10;;;;;;;14.08;76.04;101508.69;5019213;28;20392;-82
2023/07/06 04:04:10;;;;;;;8.70;4.07;;;;;;;13.99;77.12;101507.31;5011465;28;20117;-82
2023/07/06 04:06:40;;;;;;;11.20;4.00;;;;;;;13.96;77.44;101510.09;5019867;28;20125;-82
2023/07/06 04:09:08;;;;;;;14.57;4.65;;;;;;;13.87;77.38;101507.84;5030813;28;20440;-82
2023/07/06 04:11:34;;;;;;;5.40;3.50;;;;;;;13.95;77.03;101519.88;5015939;28;20038;-82
2023/07/06 04:14:00;;;;;;;8.90;3.50;;;;;;;13.99;77.48;101520.63;5017028;28;20472;-82
2023/07/06 04:16:26;;;;;;;7.70;4.32;;;;;;;13.93;77.19;101520.84;5017437;28;20055;-82
2023/07/06 04:18:51;;;;;;;8.70;4.05;;;;;;;13.93;77.25;101520.84;5021652;28;20025;-82
2023/07/06 04:21:19;;;;;;;7.75;3.88;;;;;;;13.94;77.70;101514.59;5031232;28;20472;-82
2023/07/06 04:23:48;;;;;;;7.45;3.70;;;;;;;13.91;77.41;101512.97;5020072;28;20120;-82
2023/07/06 04:26:15;;;;;;;9.70;3.92;;;;;;;14.00;76.83;101511.69;5018513;28;20036;-82
2023/07/06 04:28:42;;;;;;;11.82;4.15;;;;;;;13.88;77.57;101523.72;5019012;28;20112;-82
2023/07/06 04:31:08;;;;;;;9.52;3.88;;;;;;;13.99;77.90;101515.28;5019865;28;20028;-83
2023/07/06 04:33:34;;;;;;;8.55;3.90;;;;;;;13.98;77.15;101516.19;5020672;28;20036;-82
2023/07/06 04:35:59;;;;;;;7.93;3.65;;;;;;;14.07;77.54;101520.25;5025559;28;20108;-81
2023/07/06 04:38:26;;;;;;;9.45;3.78;;;;;;;14.04;77.12;101523.94;5014448;28;20057;-82
2023/07/06 04:40:52;;;;;;;9.98;4.20;;;;;;;14.17;77.57;101534.88;5015979;28;20053;-82
2023/07/06 04:43:17;;;;;;;9.00;3.95;;;;;;;14.21;77.55;101540.00;5019837;28;20108;-82
2023/07/06 04:45:44;;;;;;;10.27;4.20;;;;;;;14.21;76.55;101537.31;5021815;28;20120;-82
2023/07/06 04:48:10;;;;;;;9.82;3.75;;;;;;;14.24;77.01;101539.88;5015974;28;20420;-81
2023/07/06 04:50:37;;;;;;;11.10;4.28;;;;;;;14.25;77.13;101538.91;5021094;28;20027;-82
2023/07/06 04:53:07;;;;;;;12.30;4.43;;;;;;;14.22;76.74;101541.75;5011754;28;20025;-82
2023/07/06 04:55:33;;;;;;;9.45;4.32;;;;;;;14.36;76.72;101540.25;5021087;28;20025;-82
2023/07/06 04:58:00;;;;;;;10.30;4.20;;;;;;;14.38;76.45;101539.25;5014250;28;20556;-82
2023/07/06 05:00:29;;;;;;;10.77;4.40;;;;;;;14.41;76.83;101533.81;5027518;28;20025;-82
2023/07/06 05:02:58;;;;;;;12.35;5.38;;;;;;;14.52;76.51;101539.53;5023272;28;20385;-82
2023/07/06 05:05:25;;;;;;;12.43;5.35;;;;;;;14.48;76.97;101535.28;5027804;28;20171;-82
2023/07/06 05:07:51;;;;;;;7.75;4.20;;;;;;;14.49;77.22;101544.09;5023832;28;20399;-82
2023/07/06 05:10:17;;;;;;;10.45;4.70;;;;;;;14.62;76.86;101539.09;5025394;28;20021;-81
2023/07/06 05:12:44;;;;;;;10.02;5.07;;;;;;;14.86;76.41;101540.63;5021268;28;20479;-81
2023/07/06 05:15:10;;;;;;;12.55;4.68;;;;;;;14.93;75.74;101536.75;5015727;28;20485;-81
2023/07/06 05:17:36;;;;;;;12.55;4.82;;;;;;;14.95;75.55;101540.19;5017158;28;20030;-82
2023/07/06 05:20:01;;;;;;;13.35;5.55;;;;;;;14.96;75.79;101543.72;5027767;28;20021;-82
2023/07/06 05:22:26;;;;;;;14.95;5.90;;;;;;;14.95;76.48;101540.19;5018312;28;20110;-82
2023/07/06 05:24:52;;;;;;;13.57;6.45;;;;;;;15.01;76.75;101549.69;5027400;28;20041;-82
2023/07/06 05:27:19;;;;;;;12.18;6.32;;;;;;;15.08;76.47;101551.13;5019943;28;20072;-82
2023/07/06 05:29:44;;;;;;;15.50;7.10;;;;;;;15.12;75.75;101549.19;5029267;28;20044;-81
2023/07/06 05:32:10;;;;;;;16.15;5.93;;;;;;;15.21;75.77;101551.41;5019638;28;20124;-82
2023/07/06 05:34:35;;;;;;;14.60;7.13;;;;;;;15.32;76.05;101551.75;5021886;28;20048;-81
2023/07/06 05:37:02;;;;;;;17.52;8.05;;;;;;;15.25;75.48;101548.53;5017395;28;20498;-82
2023/07/06 05:39:27;;;;;;;20.27;7.50;;;;;;;15.38;75.73;101561.25;5025175;28;20083;-82
2023/07/06 05:41:52;;;;;;;24.15;8.40;;;;;;;15.40;75.77;101552.25;5024127;28;20421;-82
2023/07/06 05:44:18;;;;;;;16.98;7.57;;;;;;;15.57;75.55;101554.94;5036839;28;20033;-81
2023/07/06 05:46:43;;;;;;;17.52;7.80;;;;;;;15.57;75.31;101557.63;5022115;28;20018;-82
2023/07/06 05:49:08;;;;;;;19.25;8.48;;;;;;;15.74;74.94;101567.44;5017277;28;20033;-82
2023/07/06 05:51:34;;;;;;;19.85;8.32;;;;;;;15.94;74.50;101557.56;5026611;28;20033;-82
2023/07/06 05:53:59;;;;;;;18.73;8.82;;;;;;;15.95;73.89;101560.19;5027343;28;20028;-81
2023/07/06 05:56:25;;;;;;;17.10;9.02;;;;;;;16.01;74.61;101567.00;5024768;28;20024;-82
2023/07/06 05:58:51;;;;;;;19.58;8.98;;;;;;;16.08;73.75;101561.25;5018665;28;20080;-82
2023/07/06 06:01:19;;;;;;;22.05;10.75;;;;;;;16.12;73.46;101569.97;5020615;28;20029;-81
2023/07/06 06:03:45;;;;;;;18.35;9.57;;;;;;;16.11;73.88;101576.25;5011243;28;20037;-82
2023/07/06 06:06:10;;;;;;;20.40;9.45;;;;;;;16.13;73.85;101565.50;5026150;28;20408;-82
2023/07/06 06:08:36;;;;;;;23.60;8.93;;;;;;;16.17;72.96;101578.59;5028418;28;20021;-82
2023/07/06 06:11:01;;;;;;;20.45;10.32;;;;;;;16.23;73.24;101583.63;5027741;28;20029;-82
2023/07/06 06:13:27;;;;;;;22.70;10.07;;;;;;;16.19;73.55;101581.22;5027601;28;20104;-83
2023/07/06 06:15:52;;;;;;;24.73;9.90;;;;;;;16.24;73.35;101581.81;5030756;28;20021;-82
2023/07/06 06:18:18;;;;;;;22.95;10.40;;;;;;;16.27;72.93;101578.97;5022812;28;20463;-82
2023/07/06 06:20:44;;;;;;;22.98;8.88;;;;;;;16.44;73.39;101578.09;5033366;28;20501;-82
2023/07/06 06:23:10;;;;;;;20.85;10.15;;;;;;;16.45;73.51;101579.81;5032436;28;20037;-82
2023/07/06 06:25:38;;;;;;;16.13;9.25;;;;;;;16.49;72.87;101578.72;5032866;28;20024;-82
2023/07/06 06:28:04;;;;;;;23.55;9.90;;;;;;;16.67;73.10;101584.88;5025423;28;20071;-82
2023/07/06 06:30:29;;;;;;;23.05;9.90;;;;;;;16.68;73.14;101591.94;5022033;28;20033;-82
2023/07/06 06:32:56;;;;;;;18.02;8.63;;;;;;;16.80;73.08;101584.19;5015247;28;20054;-82
2023/07/06 06:35:24;;;;;;;20.75;9.07;;;;;;;16.85;71.73;101596.44;5017314;28;20116;-82
2023/07/06 06:37:50;;;;;;;16.00;7.68;;;;;;;16.89;71.62;101582.81;5018213;28;20045;-81
2023/07/06 06:40:16;;;;;;;19.92;10.25;;;;;;;17.05;71.62;101594.38;5018612;28;20705;-81
2023/07/06 06:42:41;;;;;;;19.65;10.07;;;;;;;17.17;72.19;101600.88;5024618;28;20611;-82
2023/07/06 06:45:07;;;;;;;19.42;10.75;;;;;;;17.27;70.64;101595.88;5017973;28;20036;-81
2023/07/06 06:47:32;;;;;;;21.33;8.93;;;;;;;17.32;70.61;101605.34;5016604;28;20029;-82
2023/07/06 06:49:59;;;;;;;18.40;9.57;;;;;;;17.28;70.88;101603.78;5026068;28;20511;-82
2023/07/06 06:52:26;;;;;;;22.33;9.88;;;;;;;17.54;70.67;101612.16;5025853;28;20036;-82
2023/07/06 06:54:52;;;;;;;20.42;9.18;;;;;;;17.80;69.47;101608.84;5018605;28;20448;-82
2023/07/06 06:57:20;;;;;;;20.08;9.40;;;;;;;17.79;68.77;101608.94;5027150;28;20175;-81
2023/07/06 06:59:47;;;;;;;20.90;9.90;;;;;;;17.71;67.85;101609.34;5022528;28;20047;-82
2023/07/06 07:02:13;;;;;;;20.90;10.60;;;;;;;17.66;69.53;101615.94;5022018;28;20483;-81
2023/07/06 07:04:38;;;;;;;17.30;9.68;;;;;;;18.00;69.73;101614.84;5019023;28;20037;-81
2023/07/06 07:07:04;;;;;;;21.15;11.52;;;;;;;17.99;70.06;101621.16;5024384;28;20168;-81
2023/07/06 07:09:29;;;;;;;19.27;10.60;;;;;;;18.16;68.66;101628.19;5015091;28;20533;-82
2023/07/06 07:11:55;;;;;;;16.88;10.75;;;;;;;18.17;68.18;101625.44;5025148;28;20092;-81
2023/07/06 07:14:20;;;;;;;20.35;10.70;;;;;;;18.17;68.71;101629.91;5019362;28;20021;-81
2023/07/06 07:16:45;;;;;;;22.42;10.82;;;;;;;18.20;68.04;101632.44;5009233;28;20550;-80
2023/07/06 07:19:11;;;;;;;20.60;11.23;;;;;;;18.19;66.99;101628.88;5020233;28;20037;-83
2023/07/06 07:21:36;;;;;;;18.02;10.20;;;;;;;18.21;67.30;101631.47;5020966;28;20017;-83
2023/07/06 07:24:01;;;;;;;20.15;9.85;;;;;;;18.28;66.73;101640.88;5015144;28;20052;-83
2023/07/06 07:26:27;;;;;;;21.10;9.73;;;;;;;18.48;66.49;101643.19;5020475;28;20027;-83
2023/07/06 07:28:53;;;;;;;25.02;10.38;;;;;;;18.66;66.44;101638.53;5018562;28;20028;-83
2023/07/06 07:31:20;;;;;;;19.63;9.35;;;;;;;18.75;65.88;101647.88;5013416;28;20017;-83
2023/07/06 07:33:46;;;;;;;15.52;9.23;;;;;;;18.56;66.62;101654.31;5022366;28;20391;-82
2023/07/06 07:36:14;;;;;;;19.27;9.95;;;;;;;18.55;67.26;101651.72;5019208;28;20033;-83
2023/07/06 07:38:39;;;;;;;19.48;11.90;;;;;;;18.28;68.13;101652.44;5023773;28;20056;-82
2023/07/06 07:41:07;;;;;;;17.35;9.43;;;;;;;18.51;68.03;101652.84;5025055;28;20077;-83
2023/07/06 07:43:35;;;;;;;19.40;10.70;;;;;;;18.51;66.39;101655.53;5024402;28;20041;-83
2023/07/06 07:46:05;;;;;;;19.33;10.43;;;;;;;18.31;67.47;101646.88;5029602;28;20368;-83
2023/07/06 07:48:38;;;;;;;17.60;10.45;;;;;;;18.55;66.96;101649.88;5018335;28;20032;-83
2023/07/06 07:51:07;;;;;;;20.58;10.68;;;;;;;18.94;68.37;101660.97;5023565;28;20025;-82
2023/07/06 07:53:35;;;;;;;18.10;10.98;;;;;;;19.07;65.42;101654.75;5029833;28;20759;-81
2023/07/06 07:56:01;;;;;;;18.55;10.73;;;;;;;19.57;63.33;101663.19;5026120;28;20086;-81
2023/07/06 07:58:27;;;;;;;18.48;10.20;;;;;;;19.74;63.68;101654.94;5021634;28;20038;-81
2023/07/06 08:00:57;;;;;;;17.23;10.95;;;;;;;19.73;62.53;101661.28;5015221;28;20491;-81
2023/07/06 08:03:23;;;;;;;25.15;11.00;;;;;;;20.20;61.42;101665.31;5025807;28;20047;-80
2023/07/06 08:05:54;;;;;;;20.58;10.93;;;;;;;20.53;59.82;101662.19;5034454;28;20502;-81
2023/07/06 08:08:24;;;;;;;17.15;10.73;;;;;;;21.61;56.79;101655.41;5016739;28;20022;-81
2023/07/06 08:10:50;;;;;;;16.83;10.00;;;;;;;22.19;54.35;101661.84;5038178;28;20480;-80
2023/07/06 08:13:17;;;;;;;18.30;10.68;;;;;;;22.52;54.53;101660.22;5029310;28;20096;-81
2023/07/06 08:15:44;;;;;;;19.45;9.80;;;;;;;22.80;53.37;101651.72;5014600;28;20026;-81
2023/07/06 08:18:10;;;;;;;14.52;9.55;;;;;;;22.93;53.45;101648.94;5020223;28;20056;-81
2023/07/06 08:20:35;;;;;;;15.60;9.38;;;;;;;22.83;53.48;101656.84;5033376;28;20068;-81
2023/07/06 08:23:04;;;;;;;19.45;9.90;;;;;;;22.77;53.06;101665.44;5026904;28;20538;-81
2023/07/06 08:25:43;;;;;;;15.88;9.40;;;;;;;23.34;53.05;101664.50;5026069;28;20021;-81
2023/07/06 08:28:12;;;;;;;17.70;9.65;;;;;;;24.10;50.04;101662.72;5021009;28;20037;-81
2023/07/06 08:30:40;;;;;;;16.17;9.68;;;;;;;24.54;51.44;101662.66;5020571;28;20021;-81
2023/07/06 08:33:07;;;;;;;19.08;8.80;;;;;;;25.25;47.07;101666.34;5011865;28;20018;-82
2023/07/06 08:35:33;;;;;;;15.77;9.30;;;;;;;25.03;47.00;101666.50;5010790;28;20143;-82
2023/07/06 08:38:03;;;;;;;18.42;9.65;;;;;;;25.57;46.05;101665.28;5027236;28;20064;-83
2023/07/06 08:40:30;;;;;;;16.58;8.57;;;;;;;25.47;46.22;101668.00;5020045;28;20061;-83
2023/07/06 08:42:56;;;;;;;15.20;7.72;;;;;;;24.47;47.82;101678.53;5024404;28;20091;-83
2023/07/06 08:45:27;;;;;;;16.40;8.27;;;;;;;23.86;51.73;101675.59;5020309;28;20164;-83
2023/07/06 08:47:53;;;;;;;16.38;9.15;;;;;;;23.12;51.54;101669.91;5039762;28;20032;-83
2023/07/06 08:50:28;;;;;;;21.27;9.27;;;;;;;22.51;52.50;101675.53;5018876;28;20033;-82
2023/07/06 08:52:53;;;;;;;13.40;8.50;;;;;;;22.03;54.71;101680.97;5028246;28;20026;-83
2023/07/06 08:55:19;;;;;;;15.45;8.77;;;;;;;21.66;54.22;101685.53;5016523;28;20087;-82
2023/07/06 08:57:46;;;;;;;15.68;9.05;;;;;;;21.44;55.50;101677.31;5013931;28;20103;-83
2023/07/06 09:00:21;;;;;;;14.65;8.75;;;;;;;22.05;53.94;101678.16;5023426;28;20083;-82
2023/07/06 09:02:48;;;;;;;17.10;8.30;;;;;;;23.28;51.41;101686.59;5016657;28;20064;-82
2023/07/06 09:05:15;;;;;;;11.52;7.03;;;;;;;23.55;54.80;101679.91;5025200;28;20032;-82
2023/07/06 09:07:43;;;;;;;14.45;7.35;;;;;;;23.21;50.56;101696.13;5018996;28;20080;-83
2023/07/06 09:10:11;;;;;;;13.43;6.63;;;;;;;22.85;51.86;101686.41;5027246;28;20492;-82
2023/07/06 09:12:39;;;;;;;10.95;6.72;;;;;;;23.41;50.36;101678.38;5019221;28;20044;-83
2023/07/06 09:15:08;;;;;;;13.80;7.35;;;;;;;23.71;49.15;101687.66;5022848;28;20033;-82
2023/07/06 09:17:34;;;;;;;11.43;7.13;;;;;;;22.89;49.83;101696.00;5017285;28;20085;-82
2023/07/06 09:20:03;;;;;;;12.10;7.65;;;;;;;22.75;52.24;101691.66;5023432;28;20472;-82
2023/07/06 09:22:28;;;;;;;12.75;6.95;;;;;;;23.09;51.00;101691.75;5020118;28;20040;-82
2023/07/06 09:24:59;;;;;;;13.35;7.53;;;;;;;23.20;48.98;101702.53;5013808;28;20029;-82
2023/07/06 09:27:28;;;;;;;10.93;6.22;;;;;;;23.59;48.90;101694.88;5018488;28;20056;-82
2023/07/06 09:30:02;;;;;;;11.05;6.10;;;;;;;23.21;49.25;101703.38;5029637;28;20509;-82
2023/07/06 09:32:32;;;;;;;13.13;6.70;;;;;;;23.06;49.82;101691.97;5022320;28;20106;-81
2023/07/06 09:35:08;;;;;;;11.23;5.82;;;;;;;22.92;51.57;101691.22;5038179;28;20080;-82
2023/07/06 09:37:42;;;;;;;12.00;5.72;;;;;;;23.25;51.33;101694.06;5014302;28;20041;-83
2023/07/06 09:40:11;;;;;;;13.38;5.53;;;;;;;23.52;50.55;101699.06;5037678;28;20517;-83
2023/07/06 09:42:36;;;;;;;10.85;5.20;;;;;;;23.75;49.22;101698.09;5026641;28;20473;-82
2023/07/06 09:45:14;;;;;;;13.57;4.82;;;;;;;24.07;48.14;101700.81;5028535;28;20025;-82
2023/07/06 09:47:47;;;;;;;8.57;3.88;;;;;;;24.37;48.85;101691.13;5017639;28;20112;-83
2023/07/06 09:50:20;;;;;;;10.57;4.60;;;;;;;24.50;46.22;101696.38;5034827;28;20029;-82
2023/07/06 09:52:46;;;;;;;9.68;3.88;;;;;;;24.25;47.23;101695.72;5029274;28;20112;-83
2023/07/06 09:55:24;;;;;;;11.10;3.85;;;;;;;24.89;47.40;101700.16;5014401;28;20159;-82
2023/07/06 09:57:50;;;;;;;10.25;4.30;;;;;;;24.80;45.12;101693.69;5036948;28;20061;-83
2023/07/06 10:00:19;;;;;;;8.57;3.88;;;;;;;25.03;44.87;101699.81;5026707;28;20025;-82
2023/07/06 10:02:58;;;;;;;10.68;4.25;;;;;;;24.42;46.50;101694.31;5022901;28;20504;-82
2023/07/06 10:05:51;;;;;;;7.82;4.00;;;;;;;23.31;46.26;101694.41;5025940;28;20416;-83
2023/07/06 10:08:40;;;;;;;8.13;4.05;;;;;;;23.81;48.16;101685.91;5026890;28;20064;-82
2023/07/06 10:11:31;;;;;;;7.97;3.30;;;;;;;24.26;44.96;101699.28;5017166;28;20030;-82
2023/07/06 10:14:07;;;;;;;7.35;3.25;;;;;;;24.62;46.29;101701.59;5019383;28;20033;-82
2023/07/06 10:16:42;;;;;;;6.03;2.80;;;;;;;25.16;43.97;101695.06;5015589;28;20030;-82
2023/07/06 10:19:32;;;;;;;5.28;3.15;;;;;;;25.34;43.77;101686.31;5013884;28;20127;-82
2023/07/06 10:22:06;;;;;;;6.95;3.17;;;;;;;26.07;43.21;101690.50;5014228;28;20520;-82
2023/07/06 10:24:45;;;;;;;6.60;2.40;;;;;;;26.43;41.71;101683.50;5031864;28;20164;-81
2023/07/06 10:27:32;;;;;;;5.55;2.63;;;;;;;26.40;41.03;101672.09;5030188;28;20365;-82
2023/07/06 10:30:03;;;;;;;7.63;2.50;;;;;;;26.04;39.36;101679.94;5024803;28;20029;-81
2023/07/06 10:32:37;;;;;;;7.30;2.40;;;;;;;25.79;40.53;101681.34;5015624;28;20087;-82
2023/07/06 10:35:14;;;;;;;6.03;2.60;;;;;;;25.68;40.75;101684.13;5018406;28;20531;-82
2023/07/06 10:37:42;;;;;;;8.38;2.33;;;;;;;25.61;40.19;101677.56;5018021;28;20034;-81
2023/07/06 10:40:19;;;;;;;10.75;2.42;;;;;;;25.53;39.64;101670.13;5022201;28;20515;-82
2023/07/06 10:42:49;;;;;;;4.60;2.20;;;;;;;26.01;38.82;101674.78;5019378;28;20244;-82
2023/07/06 10:45:32;;;;;;;6.28;2.20;;;;;;;26.01;39.90;101682.91;5030789;28;20026;-82
2023/07/06 10:48:10;;;;;;;5.78;2.38;;;;;;;25.92;40.38;101676.50;5017509;28;20507;-81
2023/07/06 10:50:45;;;;;;;4.55;2.25;;;;;;;25.52;40.48;101678.41;5018455;28;20385;-81
2023/07/06 10:53:25;;;;;;;4.78;2.08;;;;;;;25.06;40.91;101683.31;5019898;28;20033;-82
2023/07/06 10:56:02;;;;;;;8.43;2.40;;;;;;;25.15;40.36;101684.41;5016078;28;20061;-82
2023/07/06 10:58:57;;;;;;;6.75;2.35;;;;;;;25.48;40.75;101683.22;5018875;28;20104;-81
2023/07/06 11:01:29;;;;;;;6.10;2.50;;;;;;;25.09;40.33;101687.66;5022458;28;20401;-82
2023/07/06 11:03:54;;;;;;;5.07;2.05;;;;;;;25.54;39.18;101670.97;5018427;28;20034;-84
2023/07/06 11:06:41;;;;;;;4.72;2.20;;;;;;;25.83;38.77;101685.47;5030163;28;20125;-81
2023/07/06 11:09:09;;;;;;;7.13;2.53;;;;;;;26.27;38.66;101683.22;5027232;28;20017;-81
2023/07/06 11:11:49;;;;;;;4.22;2.15;;;;;;;26.43;37.37;101685.38;5028441;28;20449;-82
2023/07/06 11:14:31;;;;;;;6.00;2.08;;;;;;;26.41;38.45;101688.22;5030379;28;20024;-81
2023/07/06 11:17:00;;;;;;;5.10;2.28;;;;;;;26.58;37.97;101688.50;5014477;28;20034;-80
2023/07/06 11:19:41;;;;;;;2.53;1.77;;;;;;;26.41;38.13;101688.22;5028664;28;20056;-81
2023/07/06 11:22:13;;;;;;;4.60;2.40;;;;;;;26.04;38.10;101700.75;5017039;28;20927;-81
2023/07/06 11:24:44;;;;;;;6.68;2.05;;;;;;;25.83;37.99;101695.44;5021680;28;20037;-81
2023/07/06 11:27:37;;;;;;;4.80;1.90;;;;;;;25.89;38.83;101695.75;5020129;28;20029;-80
2023/07/06 11:30:02;;;;;;;6.07;2.10;;;;;;;25.69;38.66;101689.44;5028512;28;20520;-81